sensor_id;sensor_type;location;lat;lon;timestamp;temperature;humidity
38398;DHT22;24179;52.094;4.408;2023-02-14T00:00:23;2.50;99.90
38398;DHT22;24179;52.094;4.408;2023-02-14T00:03:24;2.50;99.90
38398;DHT22;24179;52.094;4.408;2023-02-14T00:06:24;2.50;99.90
38398;DHT22;24179;52.094;4.408;2023-02-14T00:09:25;2.40;99.90
38398;DHT22;24179;52.094;4.408;2023-02-14T00:12:26;2.40;99.90
38398;DHT22;24179;52.094;4.408;2023-02-14T00:15:26;2.40;99.90
38398;DHT22;24179;52.094;4.408;2023-02-14T00:18:26;2.40;99.90
38398;DHT22;24179;52.094;4.408;2023-02-14T00:21:47;2.40;99.90
38398;DHT22;24179;52.094;4.408;2023-02-14T00:24:48;2.30;99.90
38398;DHT22;24179;52.094;4.408;2023-02-14T00:27:48;2.30;99.90
38398;DHT22;24179;52.094;4.408;2023-02-14T00:30:49;2.30;99.90
38398;DHT22;24179;52.094;4.408;2023-02-14T00:33:49;2.20;99.90
38398;DHT22;24179;52.094;4.408;2023-02-14T00:36:50;2.20;99.90
38398;DHT22;24179;52.094;4.408;2023-02-14T00:39:50;2.20;99.90
38398;DHT22;24179;52.094;4.408;2023-02-14T00:42:51;2.20;99.90
38398;DHT22;24179;52.094;4.408;2023-02-14T00:45:51;2.10;99.90
38398;DHT22;24179;52.094;4.408;2023-02-14T00:48:52;2.10;99.90
38398;DHT22;24179;52.094;4.408;2023-02-14T00:51:52;2.10;99.90
38398;DHT22;24179;52.094;4.408;2023-02-14T00:54:53;2.10;99.90
38398;DHT22;24179;52.094;4.408;2023-02-14T00:57:53;2.00;99.90
38398;DHT22;24179;52.094;4.408;2023-02-14T01:00:54;2.00;99.90
38398;DHT22;24179;52.094;4.408;2023-02-14T01:03:54;2.00;99.90
38398;DHT22;24179;52.094;4.408;2023-02-14T01:06:55;1.90;99.90
38398;DHT22;24179;52.094;4.408;2023-02-14T01:09:55;1.90;99.90
38398;DHT22;24179;52.094;4.408;2023-02-14T01:12:55;1.90;99.90
38398;DHT22;24179;52.094;4.408;2023-02-14T01:15:56;1.80;99.90
38398;DHT22;24179;52.094;4.408;2023-02-14T01:18:57;1.90;99.90
38398;DHT22;24179;52.094;4.408;2023-02-14T01:21:58;1.80;99.90
38398;DHT22;24179;52.094;4.408;2023-02-14T01:24:59;1.80;99.90
38398;DHT22;24179;52.094;4.408;2023-02-14T01:27:59;1.80;99.90
38398;DHT22;24179;52.094;4.408;2023-02-14T01:31:10;1.80;99.90
38398;DHT22;24179;52.094;4.408;2023-02-14T01:34:11;1.70;99.90
38398;DHT22;24179;52.094;4.408;2023-02-14T01:37:11;1.70;99.90
38398;DHT22;24179;52.094;4.408;2023-02-14T01:40:12;1.70;99.90
38398;DHT22;24179;52.094;4.408;2023-02-14T01:43:16;1.70;99.90
38398;DHT22;24179;52.094;4.408;2023-02-14T01:46:16;1.60;99.90
38398;DHT22;24179;52.094;4.408;2023-02-14T01:49:24;1.60;99.90
38398;DHT22;24179;52.094;4.408;2023-02-14T01:52:36;1.60;99.90
38398;DHT22;24179;52.094;4.408;2023-02-14T01:55:41;1.60;99.90
38398;DHT22;24179;52.094;4.408;2023-02-14T01:58:43;1.50;99.90
38398;DHT22;24179;52.094;4.408;2023-02-14T02:01:45;1.50;99.90
38398;DHT22;24179;52.094;4.408;2023-02-14T02:04:48;1.50;99.90
38398;DHT22;24179;52.094;4.408;2023-02-14T02:07:50;1.50;99.90
38398;DHT22;24179;52.094;4.408;2023-02-14T02:10:50;1.40;99.90
38398;DHT22;24179;52.094;4.408;2023-02-14T02:13:51;1.40;99.90
38398;DHT22;24179;52.094;4.408;2023-02-14T02:20:25;1.40;99.90
38398;DHT22;24179;52.094;4.408;2023-02-14T02:49:40;1.10;99.90
38398;DHT22;24179;52.094;4.408;2023-02-14T02:56:24;1.00;99.90
38398;DHT22;24179;52.094;4.408;2023-02-14T02:59:41;1.00;99.90
38398;DHT22;24179;52.094;4.408;2023-02-14T03:02:45;1.00;99.90
38398;DHT22;24179;52.094;4.408;2023-02-14T03:06:06;1.00;99.90
38398;DHT22;24179;52.094;4.408;2023-02-14T03:09:49;1.00;99.90
38398;DHT22;24179;52.094;4.408;2023-02-14T03:31:23;0.80;99.90
38398;DHT22;24179;52.094;4.408;2023-02-14T03:34:29;0.80;99.90
38398;DHT22;24179;52.094;4.408;2023-02-14T03:37:32;0.80;99.90
38398;DHT22;24179;52.094;4.408;2023-02-14T03:43:41;0.80;99.90
38398;DHT22;24179;52.094;4.408;2023-02-14T03:46:48;0.70;99.90
38398;DHT22;24179;52.094;4.408;2023-02-14T03:49:59;0.70;99.90
38398;DHT22;24179;52.094;4.408;2023-02-14T03:53:01;0.70;99.90
38398;DHT22;24179;52.094;4.408;2023-02-14T03:59:16;0.70;99.90
38398;DHT22;24179;52.094;4.408;2023-02-14T04:02:18;0.80;99.90
38398;DHT22;24179;52.094;4.408;2023-02-14T04:05:22;0.70;99.90
38398;DHT22;24179;52.094;4.408;2023-02-14T04:08:25;0.80;99.90
38398;DHT22;24179;52.094;4.408;2023-02-14T04:11:26;0.80;99.90
38398;DHT22;24179;52.094;4.408;2023-02-14T04:14:27;0.90;99.90
38398;DHT22;24179;52.094;4.408;2023-02-14T04:17:29;0.80;99.90
38398;DHT22;24179;52.094;4.408;2023-02-14T04:20:48;0.80;99.90
38398;DHT22;24179;52.094;4.408;2023-02-14T04:23:49;0.80;99.90
38398;DHT22;24179;52.094;4.408;2023-02-14T04:26:49;0.70;99.90
38398;DHT22;24179;52.094;4.408;2023-02-14T04:30:09;0.70;99.90
38398;DHT22;24179;52.094;4.408;2023-02-14T04:33:09;0.70;99.90
38398;DHT22;24179;52.094;4.408;2023-02-14T04:36:10;0.60;99.90
38398;DHT22;24179;52.094;4.408;2023-02-14T04:39:11;0.70;99.90
38398;DHT22;24179;52.094;4.408;2023-02-14T04:42:11;0.60;99.90
38398;DHT22;24179;52.094;4.408;2023-02-14T04:45:12;0.60;99.90
38398;DHT22;24179;52.094;4.408;2023-02-14T04:48:13;0.60;99.90
38398;DHT22;24179;52.094;4.408;2023-02-14T04:51:13;0.50;99.90
38398;DHT22;24179;52.094;4.408;2023-02-14T04:54:14;0.50;99.90
38398;DHT22;24179;52.094;4.408;2023-02-14T04:57:14;0.50;99.90
38398;DHT22;24179;52.094;4.408;2023-02-14T05:00:15;0.50;99.90
38398;DHT22;24179;52.094;4.408;2023-02-14T05:03:15;0.50;99.90
38398;DHT22;24179;52.094;4.408;2023-02-14T05:06:16;0.50;99.90
38398;DHT22;24179;52.094;4.408;2023-02-14T05:09:16;0.50;99.90
38398;DHT22;24179;52.094;4.408;2023-02-14T05:12:17;0.50;99.90
38398;DHT22;24179;52.094;4.408;2023-02-14T05:15:17;0.50;99.90
38398;DHT22;24179;52.094;4.408;2023-02-14T05:18:17;0.50;99.90
38398;DHT22;24179;52.094;4.408;2023-02-14T05:21:18;0.50;99.90
38398;DHT22;24179;52.094;4.408;2023-02-14T05:24:18;0.40;99.90
38398;DHT22;24179;52.094;4.408;2023-02-14T05:27:19;0.40;99.90
38398;DHT22;24179;52.094;4.408;2023-02-14T05:30:19;0.40;99.90
38398;DHT22;24179;52.094;4.408;2023-02-14T05:33:25;0.30;99.90
38398;DHT22;24179;52.094;4.408;2023-02-14T05:36:26;0.30;99.90
38398;DHT22;24179;52.094;4.408;2023-02-14T05:39:26;0.30;99.90
38398;DHT22;24179;52.094;4.408;2023-02-14T05:42:26;0.30;99.90
38398;DHT22;24179;52.094;4.408;2023-02-14T05:45:27;0.30;99.90
38398;DHT22;24179;52.094;4.408;2023-02-14T05:48:27;0.30;99.90
38398;DHT22;24179;52.094;4.408;2023-02-14T05:51:28;0.30;99.90
38398;DHT22;24179;52.094;4.408;2023-02-14T05:54:28;0.40;99.90
38398;DHT22;24179;52.094;4.408;2023-02-14T05:57:29;0.40;99.90
38398;DHT22;24179;52.094;4.408;2023-02-14T06:00:29;0.50;99.90
38398;DHT22;24179;52.094;4.408;2023-02-14T06:03:30;0.50;99.90
38398;DHT22;24179;52.094;4.408;2023-02-14T06:06:30;0.40;99.90
38398;DHT22;24179;52.094;4.408;2023-02-14T06:09:31;0.40;99.90
38398;DHT22;24179;52.094;4.408;2023-02-14T06:12:31;0.40;99.90
38398;DHT22;24179;52.094;4.408;2023-02-14T06:15:32;0.40;99.90
38398;DHT22;24179;52.094;4.408;2023-02-14T06:18:32;0.40;99.90
38398;DHT22;24179;52.094;4.408;2023-02-14T06:21:32;0.40;99.90
38398;DHT22;24179;52.094;4.408;2023-02-14T06:24:33;0.40;99.90
38398;DHT22;24179;52.094;4.408;2023-02-14T06:27:33;0.40;99.90
38398;DHT22;24179;52.094;4.408;2023-02-14T06:30:34;0.30;99.90
38398;DHT22;24179;52.094;4.408;2023-02-14T06:33:34;0.30;99.90
38398;DHT22;24179;52.094;4.408;2023-02-14T06:36:35;0.30;99.90
38398;DHT22;24179;52.094;4.408;2023-02-14T06:39:35;0.30;99.90
38398;DHT22;24179;52.094;4.408;2023-02-14T06:42:36;0.30;99.90
38398;DHT22;24179;52.094;4.408;2023-02-14T06:45:37;0.20;99.90
38398;DHT22;24179;52.094;4.408;2023-02-14T06:48:37;0.20;99.90
38398;DHT22;24179;52.094;4.408;2023-02-14T06:51:38;0.30;99.90
38398;DHT22;24179;52.094;4.408;2023-02-14T06:54:39;0.30;99.90
38398;DHT22;24179;52.094;4.408;2023-02-14T06:57:39;0.30;99.90
38398;DHT22;24179;52.094;4.408;2023-02-14T07:00:40;0.30;99.90
38398;DHT22;24179;52.094;4.408;2023-02-14T07:03:40;0.30;99.90
38398;DHT22;24179;52.094;4.408;2023-02-14T07:06:41;0.30;99.90
38398;DHT22;24179;52.094;4.408;2023-02-14T07:09:41;0.30;99.90
38398;DHT22;24179;52.094;4.408;2023-02-14T07:12:42;0.40;99.90
38398;DHT22;24179;52.094;4.408;2023-02-14T07:15:42;0.50;99.90
38398;DHT22;24179;52.094;4.408;2023-02-14T07:18:42;0.50;99.90
38398;DHT22;24179;52.094;4.408;2023-02-14T07:21:43;0.50;99.90
38398;DHT22;24179;52.094;4.408;2023-02-14T07:24:43;0.60;99.90
38398;DHT22;24179;52.094;4.408;2023-02-14T07:27:44;0.60;99.90
38398;DHT22;24179;52.094;4.408;2023-02-14T07:30:44;0.60;99.90
38398;DHT22;24179;52.094;4.408;2023-02-14T07:33:45;0.60;99.90
38398;DHT22;24179;52.094;4.408;2023-02-14T07:36:45;0.60;99.90
38398;DHT22;24179;52.094;4.408;2023-02-14T07:39:46;0.60;99.90
38398;DHT22;24179;52.094;4.408;2023-02-14T07:42:56;0.70;99.90
38398;DHT22;24179;52.094;4.408;2023-02-14T07:45:58;0.70;99.90
38398;DHT22;24179;52.094;4.408;2023-02-14T07:48:58;0.80;99.90
38398;DHT22;24179;52.094;4.408;2023-02-14T07:51:59;0.90;99.90
38398;DHT22;24179;52.094;4.408;2023-02-14T07:54:59;1.00;99.90
38398;DHT22;24179;52.094;4.408;2023-02-14T07:58:00;1.10;99.90
38398;DHT22;24179;52.094;4.408;2023-02-14T08:01:01;1.20;99.90
38398;DHT22;24179;52.094;4.408;2023-02-14T08:04:01;1.30;99.90
38398;DHT22;24179;52.094;4.408;2023-02-14T08:07:04;1.40;99.90
38398;DHT22;24179;52.094;4.408;2023-02-14T08:10:05;1.60;99.90
38398;DHT22;24179;52.094;4.408;2023-02-14T08:13:08;1.80;99.90
38398;DHT22;24179;52.094;4.408;2023-02-14T08:16:09;2.10;99.90
38398;DHT22;24179;52.094;4.408;2023-02-14T08:19:11;2.50;99.90
38398;DHT22;24179;52.094;4.408;2023-02-14T08:22:12;3.50;99.90
38398;DHT22;24179;52.094;4.408;2023-02-14T08:25:12;4.70;99.90
38398;DHT22;24179;52.094;4.408;2023-02-14T08:28:13;5.70;99.90
38398;DHT22;24179;52.094;4.408;2023-02-14T08:31:20;6.50;99.90
38398;DHT22;24179;52.094;4.408;2023-02-14T08:34:21;7.20;99.90
38398;DHT22;24179;52.094;4.408;2023-02-14T08:37:22;7.90;99.90
38398;DHT22;24179;52.094;4.408;2023-02-14T08:40:22;8.50;99.90
38398;DHT22;24179;52.094;4.408;2023-02-14T08:43:22;9.00;99.90
38398;DHT22;24179;52.094;4.408;2023-02-14T08:46:23;9.30;99.90
38398;DHT22;24179;52.094;4.408;2023-02-14T08:49:23;9.60;99.90
38398;DHT22;24179;52.094;4.408;2023-02-14T08:52:24;9.80;99.90
38398;DHT22;24179;52.094;4.408;2023-02-14T08:55:24;10.10;99.90
38398;DHT22;24179;52.094;4.408;2023-02-14T08:58:25;10.50;99.90
38398;DHT22;24179;52.094;4.408;2023-02-14T09:01:25;10.80;99.90
38398;DHT22;24179;52.094;4.408;2023-02-14T09:04:28;11.30;99.90
38398;DHT22;24179;52.094;4.408;2023-02-14T09:07:28;11.20;99.90
38398;DHT22;24179;52.094;4.408;2023-02-14T09:10:29;11.20;99.90
38398;DHT22;24179;52.094;4.408;2023-02-14T09:13:29;11.90;99.90
38398;DHT22;24179;52.094;4.408;2023-02-14T09:16:29;12.40;99.90
38398;DHT22;24179;52.094;4.408;2023-02-14T09:19:34;12.90;99.90
38398;DHT22;24179;52.094;4.408;2023-02-14T09:22:35;13.00;99.90
38398;DHT22;24179;52.094;4.408;2023-02-14T09:25:35;13.20;99.90
38398;DHT22;24179;52.094;4.408;2023-02-14T09:28:36;13.40;99.90
38398;DHT22;24179;52.094;4.408;2023-02-14T09:31:36;13.30;99.90
38398;DHT22;24179;52.094;4.408;2023-02-14T09:34:36;13.80;99.90
38398;DHT22;24179;52.094;4.408;2023-02-14T09:37:37;13.90;99.90
38398;DHT22;24179;52.094;4.408;2023-02-14T09:40:56;14.10;99.90
38398;DHT22;24179;52.094;4.408;2023-02-14T09:43:58;14.10;99.90
38398;DHT22;24179;52.094;4.408;2023-02-14T09:53:34;14.50;99.90
38398;DHT22;24179;52.094;4.408;2023-02-14T09:56:49;14.40;99.90
38398;DHT22;24179;52.094;4.408;2023-02-14T09:59:54;14.60;99.90
38398;DHT22;24179;52.094;4.408;2023-02-14T10:03:02;14.50;99.90
38398;DHT22;24179;52.094;4.408;2023-02-14T10:12:20;15.10;99.90
38398;DHT22;24179;52.094;4.408;2023-02-14T10:15:32;15.50;99.90
38398;DHT22;24179;52.094;4.408;2023-02-14T10:21:58;15.20;99.90
38398;DHT22;24179;52.094;4.408;2023-02-14T10:25:01;14.90;99.90
38398;DHT22;24179;52.094;4.408;2023-02-14T10:28:02;15.20;99.90
38398;DHT22;24179;52.094;4.408;2023-02-14T10:31:25;15.50;99.90
38398;DHT22;24179;52.094;4.408;2023-02-14T10:34:40;15.90;99.90
38398;DHT22;24179;52.094;4.408;2023-02-14T10:37:47;16.10;99.90
38398;DHT22;24179;52.094;4.408;2023-02-14T10:41:02;16.30;99.90
38398;DHT22;24179;52.094;4.408;2023-02-14T10:44:18;16.90;99.90
38398;DHT22;24179;52.094;4.408;2023-02-14T10:47:25;16.90;99.90
38398;DHT22;24179;52.094;4.408;2023-02-14T10:56:50;17.60;99.90
38398;DHT22;24179;52.094;4.408;2023-02-14T10:59:56;17.60;99.90
38398;DHT22;24179;52.094;4.408;2023-02-14T11:02:59;17.80;99.90
38398;DHT22;24179;52.094;4.408;2023-02-14T11:06:00;17.90;99.90
38398;DHT22;24179;52.094;4.408;2023-02-14T11:09:01;17.80;99.90
38398;DHT22;24179;52.094;4.408;2023-02-14T11:12:02;18.00;99.90
38398;DHT22;24179;52.094;4.408;2023-02-14T11:15:10;17.90;99.90
38398;DHT22;24179;52.094;4.408;2023-02-14T11:18:16;17.70;99.90
38398;DHT22;24179;52.094;4.408;2023-02-14T11:21:19;17.70;99.90
38398;DHT22;24179;52.094;4.408;2023-02-14T11:27:27;17.70;99.90
38398;DHT22;24179;52.094;4.408;2023-02-14T11:30:35;17.70;99.90
38398;DHT22;24179;52.094;4.408;2023-02-14T11:33:37;17.90;99.90
38398;DHT22;24179;52.094;4.408;2023-02-14T11:36:39;17.40;99.90
38398;DHT22;24179;52.094;4.408;2023-02-14T11:39:40;17.30;99.90
38398;DHT22;24179;52.094;4.408;2023-02-14T11:42:42;17.30;99.90
38398;DHT22;24179;52.094;4.408;2023-02-14T11:45:42;17.50;99.90
38398;DHT22;24179;52.094;4.408;2023-02-14T11:49:00;17.50;99.90
38398;DHT22;24179;52.094;4.408;2023-02-14T11:52:08;17.40;99.90
38398;DHT22;24179;52.094;4.408;2023-02-14T11:55:19;17.60;99.90
38398;DHT22;24179;52.094;4.408;2023-02-14T11:58:28;17.50;99.90
38398;DHT22;24179;52.094;4.408;2023-02-14T12:01:34;17.10;99.90
38398;DHT22;24179;52.094;4.408;2023-02-14T12:04:35;16.90;99.90
38398;DHT22;24179;52.094;4.408;2023-02-14T12:07:38;16.60;99.90
38398;DHT22;24179;52.094;4.408;2023-02-14T12:10:41;16.80;99.90
38398;DHT22;24179;52.094;4.408;2023-02-14T12:13:44;16.40;99.90
38398;DHT22;24179;52.094;4.408;2023-02-14T12:23:09;17.50;99.90
38398;DHT22;24179;52.094;4.408;2023-02-14T12:29:29;17.60;99.90
38398;DHT22;24179;52.094;4.408;2023-02-14T12:32:31;17.60;99.90
38398;DHT22;24179;52.094;4.408;2023-02-14T12:47:55;17.40;99.90
38398;DHT22;24179;52.094;4.408;2023-02-14T12:54:34;17.40;99.90
38398;DHT22;24179;52.094;4.408;2023-02-14T12:57:56;17.60;99.90
38398;DHT22;24179;52.094;4.408;2023-02-14T13:04:21;17.20;99.90
38398;DHT22;24179;52.094;4.408;2023-02-14T13:11:00;17.70;99.90
38398;DHT22;24179;52.094;4.408;2023-02-14T13:14:04;17.80;99.90
38398;DHT22;24179;52.094;4.408;2023-02-14T13:17:25;17.80;99.90
38398;DHT22;24179;52.094;4.408;2023-02-14T13:20:36;17.40;99.90
38398;DHT22;24179;52.094;4.408;2023-02-14T13:23:42;17.40;99.90
38398;DHT22;24179;52.094;4.408;2023-02-14T13:26:44;17.10;99.90
38398;DHT22;24179;52.094;4.408;2023-02-14T13:29:49;16.90;99.90
38398;DHT22;24179;52.094;4.408;2023-02-14T13:32:50;16.70;99.90
38398;DHT22;24179;52.094;4.408;2023-02-14T13:35:57;16.40;99.90
38398;DHT22;24179;52.094;4.408;2023-02-14T13:38:58;16.70;99.90
38398;DHT22;24179;52.094;4.408;2023-02-14T13:41:59;16.50;99.90
38398;DHT22;24179;52.094;4.408;2023-02-14T13:44:59;16.30;99.90
38398;DHT22;24179;52.094;4.408;2023-02-14T13:51:12;16.30;99.90
38398;DHT22;24179;52.094;4.408;2023-02-14T13:54:46;16.00;99.90
38398;DHT22;24179;52.094;4.408;2023-02-14T13:57:39;15.90;99.90
38398;DHT22;24179;52.094;4.408;2023-02-14T14:00:41;15.30;99.90
38398;DHT22;24179;52.094;4.408;2023-02-14T14:10:00;14.40;99.90
38398;DHT22;24179;52.094;4.408;2023-02-14T14:13:01;14.20;99.90
38398;DHT22;24179;52.094;4.408;2023-02-14T14:16:36;14.00;99.90
38398;DHT22;24179;52.094;4.408;2023-02-14T14:22:29;13.90;99.90
38398;DHT22;24179;52.094;4.408;2023-02-14T14:25:30;13.70;99.90
38398;DHT22;24179;52.094;4.408;2023-02-14T14:28:31;13.60;99.90
38398;DHT22;24179;52.094;4.408;2023-02-14T14:31:32;13.40;99.90
38398;DHT22;24179;52.094;4.408;2023-02-14T14:34:33;13.30;99.90
38398;DHT22;24179;52.094;4.408;2023-02-14T14:37:34;13.30;99.90
38398;DHT22;24179;52.094;4.408;2023-02-14T14:40:36;13.20;99.90
38398;DHT22;24179;52.094;4.408;2023-02-14T14:43:37;13.20;99.90
38398;DHT22;24179;52.094;4.408;2023-02-14T14:46:38;13.10;99.90
38398;DHT22;24179;52.094;4.408;2023-02-14T14:49:39;13.00;99.90
38398;DHT22;24179;52.094;4.408;2023-02-14T14:52:43;13.00;99.90
38398;DHT22;24179;52.094;4.408;2023-02-14T14:55:46;12.90;99.90
38398;DHT22;24179;52.094;4.408;2023-02-14T14:58:51;13.00;99.90
38398;DHT22;24179;52.094;4.408;2023-02-14T15:01:52;13.00;99.90
38398;DHT22;24179;52.094;4.408;2023-02-14T15:04:53;12.90;99.90
38398;DHT22;24179;52.094;4.408;2023-02-14T15:07:54;12.90;99.90
38398;DHT22;24179;52.094;4.408;2023-02-14T15:10:56;12.80;99.90
38398;DHT22;24179;52.094;4.408;2023-02-14T15:13:58;12.80;99.90
38398;DHT22;24179;52.094;4.408;2023-02-14T15:17:21;12.70;99.90
38398;DHT22;24179;52.094;4.408;2023-02-14T15:20:22;12.60;99.90
38398;DHT22;24179;52.094;4.408;2023-02-14T15:23:23;12.40;99.90
38398;DHT22;24179;52.094;4.408;2023-02-14T15:26:27;12.30;99.90
38398;DHT22;24179;52.094;4.408;2023-02-14T15:29:29;12.20;99.90
38398;DHT22;24179;52.094;4.408;2023-02-14T15:32:30;12.10;99.90
38398;DHT22;24179;52.094;4.408;2023-02-14T15:35:33;11.90;99.90
38398;DHT22;24179;52.094;4.408;2023-02-14T15:38:35;11.90;99.90
38398;DHT22;24179;52.094;4.408;2023-02-14T15:41:41;11.80;99.90
38398;DHT22;24179;52.094;4.408;2023-02-14T15:44:42;11.60;99.90
38398;DHT22;24179;52.094;4.408;2023-02-14T15:47:44;11.50;99.90
38398;DHT22;24179;52.094;4.408;2023-02-14T15:50:46;11.30;99.90
38398;DHT22;24179;52.094;4.408;2023-02-14T15:53:49;11.20;99.90
38398;DHT22;24179;52.094;4.408;2023-02-14T15:56:51;11.10;99.90
38398;DHT22;24179;52.094;4.408;2023-02-14T15:59:52;10.90;99.90
38398;DHT22;24179;52.094;4.408;2023-02-14T16:02:54;10.80;99.90
38398;DHT22;24179;52.094;4.408;2023-02-14T16:05:56;10.70;99.90
38398;DHT22;24179;52.094;4.408;2023-02-14T16:08:56;10.50;99.90
38398;DHT22;24179;52.094;4.408;2023-02-14T16:11:57;10.40;99.90
38398;DHT22;24179;52.094;4.408;2023-02-14T16:15:17;10.30;99.90
38398;DHT22;24179;52.094;4.408;2023-02-14T16:18:30;10.20;99.90
38398;DHT22;24179;52.094;4.408;2023-02-14T16:21:31;10.10;99.90
38398;DHT22;24179;52.094;4.408;2023-02-14T16:24:32;9.90;99.90
38398;DHT22;24179;52.094;4.408;2023-02-14T16:27:33;9.80;99.90
38398;DHT22;24179;52.094;4.408;2023-02-14T16:30:33;9.70;99.90
38398;DHT22;24179;52.094;4.408;2023-02-14T16:33:37;9.60;99.90
38398;DHT22;24179;52.094;4.408;2023-02-14T16:36:38;9.40;99.90
38398;DHT22;24179;52.094;4.408;2023-02-14T16:39:39;9.30;99.90
38398;DHT22;24179;52.094;4.408;2023-02-14T16:42:40;9.20;99.90
38398;DHT22;24179;52.094;4.408;2023-02-14T16:45:41;9.10;99.90
38398;DHT22;24179;52.094;4.408;2023-02-14T16:48:42;9.00;99.90
38398;DHT22;24179;52.094;4.408;2023-02-14T16:51:43;8.80;99.90
38398;DHT22;24179;52.094;4.408;2023-02-14T16:54:44;8.70;99.90
38398;DHT22;24179;52.094;4.408;2023-02-14T16:57:45;8.60;99.90
38398;DHT22;24179;52.094;4.408;2023-02-14T17:00:46;8.40;99.90
38398;DHT22;24179;52.094;4.408;2023-02-14T17:03:47;8.30;99.90
38398;DHT22;24179;52.094;4.408;2023-02-14T17:06:51;8.20;99.90
38398;DHT22;24179;52.094;4.408;2023-02-14T17:09:53;8.10;99.90
38398;DHT22;24179;52.094;4.408;2023-02-14T17:12:56;8.00;99.90
38398;DHT22;24179;52.094;4.408;2023-02-14T17:15:57;7.80;99.90
38398;DHT22;24179;52.094;4.408;2023-02-14T17:18:57;7.70;99.90
38398;DHT22;24179;52.094;4.408;2023-02-14T17:21:58;7.60;99.90
38398;DHT22;24179;52.094;4.408;2023-02-14T17:24:59;7.50;99.90
38398;DHT22;24179;52.094;4.408;2023-02-14T17:27:59;7.40;99.90
38398;DHT22;24179;52.094;4.408;2023-02-14T17:31:00;7.30;99.90
38398;DHT22;24179;52.094;4.408;2023-02-14T17:34:00;7.10;99.90
38398;DHT22;24179;52.094;4.408;2023-02-14T17:37:01;7.10;99.90
38398;DHT22;24179;52.094;4.408;2023-02-14T17:40:02;7.00;99.90
38398;DHT22;24179;52.094;4.408;2023-02-14T17:43:03;6.90;99.90
38398;DHT22;24179;52.094;4.408;2023-02-14T17:46:03;6.80;99.90
38398;DHT22;24179;52.094;4.408;2023-02-14T17:49:04;6.70;99.90
38398;DHT22;24179;52.094;4.408;2023-02-14T17:52:05;6.70;99.90
38398;DHT22;24179;52.094;4.408;2023-02-14T17:55:06;6.60;99.90
38398;DHT22;24179;52.094;4.408;2023-02-14T17:58:08;6.50;99.90
38398;DHT22;24179;52.094;4.408;2023-02-14T18:01:09;6.40;99.90
38398;DHT22;24179;52.094;4.408;2023-02-14T18:04:10;6.40;99.90
38398;DHT22;24179;52.094;4.408;2023-02-14T18:07:11;6.30;99.90
38398;DHT22;24179;52.094;4.408;2023-02-14T18:10:11;6.30;99.90
38398;DHT22;24179;52.094;4.408;2023-02-14T18:13:12;6.20;99.90
38398;DHT22;24179;52.094;4.408;2023-02-14T18:16:14;6.10;99.90
38398;DHT22;24179;52.094;4.408;2023-02-14T18:19:15;6.00;99.90
38398;DHT22;24179;52.094;4.408;2023-02-14T18:22:16;6.00;99.90
38398;DHT22;24179;52.094;4.408;2023-02-14T18:25:16;5.90;99.90
38398;DHT22;24179;52.094;4.408;2023-02-14T18:28:17;5.80;99.90
38398;DHT22;24179;52.094;4.408;2023-02-14T18:31:17;5.80;99.90
38398;DHT22;24179;52.094;4.408;2023-02-14T18:34:18;5.70;99.90
38398;DHT22;24179;52.094;4.408;2023-02-14T18:37:18;5.70;99.90
38398;DHT22;24179;52.094;4.408;2023-02-14T18:40:19;5.70;99.90
38398;DHT22;24179;52.094;4.408;2023-02-14T18:43:20;5.60;99.90
38398;DHT22;24179;52.094;4.408;2023-02-14T18:46:21;5.60;99.90
38398;DHT22;24179;52.094;4.408;2023-02-14T18:49:22;5.50;99.90
38398;DHT22;24179;52.094;4.408;2023-02-14T18:52:23;5.40;99.90
38398;DHT22;24179;52.094;4.408;2023-02-14T18:55:23;5.30;99.90
38398;DHT22;24179;52.094;4.408;2023-02-14T18:58:24;5.30;99.90
38398;DHT22;24179;52.094;4.408;2023-02-14T19:01:25;5.30;99.90
38398;DHT22;24179;52.094;4.408;2023-02-14T19:04:28;5.20;99.90
38398;DHT22;24179;52.094;4.408;2023-02-14T19:07:28;5.20;99.90
38398;DHT22;24179;52.094;4.408;2023-02-14T19:10:29;5.20;99.90
38398;DHT22;24179;52.094;4.408;2023-02-14T19:13:29;5.10;99.90
38398;DHT22;24179;52.094;4.408;2023-02-14T19:16:32;5.00;99.90
38398;DHT22;24179;52.094;4.408;2023-02-14T19:19:32;5.00;99.90
38398;DHT22;24179;52.094;4.408;2023-02-14T19:22:37;4.90;99.90
38398;DHT22;24179;52.094;4.408;2023-02-14T19:25:38;4.80;99.90
38398;DHT22;24179;52.094;4.408;2023-02-14T19:28:39;4.80;99.90
38398;DHT22;24179;52.094;4.408;2023-02-14T19:31:40;4.80;99.90
38398;DHT22;24179;52.094;4.408;2023-02-14T19:34:41;4.80;99.90
38398;DHT22;24179;52.094;4.408;2023-02-14T19:37:41;4.70;99.90
38398;DHT22;24179;52.094;4.408;2023-02-14T19:40:42;4.70;99.90
38398;DHT22;24179;52.094;4.408;2023-02-14T19:43:44;4.70;99.90
38398;DHT22;24179;52.094;4.408;2023-02-14T19:46:45;4.60;99.90
38398;DHT22;24179;52.094;4.408;2023-02-14T19:49:45;4.60;99.90
38398;DHT22;24179;52.094;4.408;2023-02-14T19:52:46;4.60;99.90
38398;DHT22;24179;52.094;4.408;2023-02-14T19:55:46;4.50;99.90
38398;DHT22;24179;52.094;4.408;2023-02-14T19:58:47;4.50;99.90
38398;DHT22;24179;52.094;4.408;2023-02-14T20:01:49;4.40;99.90
38398;DHT22;24179;52.094;4.408;2023-02-14T20:04:51;4.40;99.90
38398;DHT22;24179;52.094;4.408;2023-02-14T20:07:52;4.30;99.90
38398;DHT22;24179;52.094;4.408;2023-02-14T20:10:56;4.30;99.90
38398;DHT22;24179;52.094;4.408;2023-02-14T20:13:56;4.20;99.90
38398;DHT22;24179;52.094;4.408;2023-02-14T20:16:59;4.10;99.90
38398;DHT22;24179;52.094;4.408;2023-02-14T20:19:59;4.10;99.90
38398;DHT22;24179;52.094;4.408;2023-02-14T20:23:00;4.00;99.90
38398;DHT22;24179;52.094;4.408;2023-02-14T20:26:00;4.00;99.90
38398;DHT22;24179;52.094;4.408;2023-02-14T20:29:02;3.90;99.90
38398;DHT22;24179;52.094;4.408;2023-02-14T20:32:03;3.90;99.90
38398;DHT22;24179;52.094;4.408;2023-02-14T20:35:04;3.80;99.90
38398;DHT22;24179;52.094;4.408;2023-02-14T20:38:05;3.80;99.90
38398;DHT22;24179;52.094;4.408;2023-02-14T20:41:09;3.80;99.90
38398;DHT22;24179;52.094;4.408;2023-02-14T20:44:10;3.80;99.90
38398;DHT22;24179;52.094;4.408;2023-02-14T20:47:11;3.70;99.90
38398;DHT22;24179;52.094;4.408;2023-02-14T20:50:12;3.70;99.90
38398;DHT22;24179;52.094;4.408;2023-02-14T20:53:12;3.70;99.90
38398;DHT22;24179;52.094;4.408;2023-02-14T20:56:13;3.60;99.90
38398;DHT22;24179;52.094;4.408;2023-02-14T20:59:13;3.60;99.90
38398;DHT22;24179;52.094;4.408;2023-02-14T21:02:14;3.60;99.90
38398;DHT22;24179;52.094;4.408;2023-02-14T21:05:15;3.50;99.90
38398;DHT22;24179;52.094;4.408;2023-02-14T21:08:17;3.50;99.90
38398;DHT22;24179;52.094;4.408;2023-02-14T21:11:18;3.50;99.90
38398;DHT22;24179;52.094;4.408;2023-02-14T21:14:20;3.50;99.90
38398;DHT22;24179;52.094;4.408;2023-02-14T21:17:20;3.50;99.90
38398;DHT22;24179;52.094;4.408;2023-02-14T21:20:21;3.50;99.90
38398;DHT22;24179;52.094;4.408;2023-02-14T21:23:22;3.40;99.90
38398;DHT22;24179;52.094;4.408;2023-02-14T21:26:22;3.40;99.90
38398;DHT22;24179;52.094;4.408;2023-02-14T21:29:23;3.40;99.90
38398;DHT22;24179;52.094;4.408;2023-02-14T21:32:24;3.30;99.90